Time;durP1;ratioP1;P1;durP2;ratioP2;P2;SDS_P1;SDS_P2;PMS_P1;PMS_P2;Temp;Humidity;BMP_temperature;BMP_pressure;BME280_temperature;BME280_humidity;BME280_pressure;Samples;Min_cycle;Max_cycle;Signal;HPM_P1;HPM_P2
2023/07/24 00:00:50;;;;;;;7.30;4.20;;;;;;;20.37;56.47;99407.59;131192;1253;108653;-79
2023/07/24 00:04:09;;;;;;;4.70;4.10;;;;;;;20.37;56.14;99411.11;131301;1252;107587;-79
2023/07/24 00:07:14;;;;;;;4.60;3.80;;;;;;;20.38;56.02;99410.09;131189;1252;107514;-79
2023/07/24 00:10:20;;;;;;;4.60;3.80;;;;;;;20.39;55.77;99410.19;131232;1252;107550;-79
2023/07/24 00:13:25;;;;;;;7.30;3.90;;;;;;;20.42;55.57;99410.98;131236;1252;107557;-80
2023/07/24 00:16:31;;;;;;;5.40;3.80;;;;;;;20.44;55.29;99412.70;131195;1250;106847;-80
2023/07/24 00:19:37;;;;;;;5.20;4.00;;;;;;;20.46;55.20;99416.77;131196;1250;107508;-79
2023/07/24 00:22:42;;;;;;;5.10;3.70;;;;;;;20.48;55.13;99418.70;131191;1252;107503;-79
2023/07/24 00:25:48;;;;;;;5.20;4.00;;;;;;;20.49;54.96;99422.10;131243;1253;107252;-79
2023/07/24 00:28:53;;;;;;;5.70;3.80;;;;;;;20.50;54.87;99426.23;131242;1252;107442;-79
2023/07/24 00:31:59;;;;;;;4.90;3.60;;;;;;;20.52;54.90;99427.30;131149;1250;107594;-80
2023/07/24 00:35:06;;;;;;;7.80;3.90;;;;;;;20.53;54.89;99428.90;131029;1251;200154;-79
2023/07/24 00:38:12;;;;;;;5.30;3.80;;;;;;;20.54;54.68;99427.01;131140;1252;107191;-79
2023/07/24 00:41:17;;;;;;;5.60;3.90;;;;;;;20.54;54.61;99429.84;131274;1252;107400;-79
2023/07/24 00:44:23;;;;;;;4.30;3.60;;;;;;;20.54;54.72;99426.90;131291;1252;107494;-79
2023/07/24 00:47:29;;;;;;;5.80;4.00;;;;;;;20.54;54.53;99421.45;131240;1252;107509;-79
2023/07/24 00:50:37;;;;;;;4.50;3.70;;;;;;;20.55;54.45;99418.52;131250;1252;107617;-79
2023/07/24 00:53:42;;;;;;;4.80;3.90;;;;;;;20.57;54.46;99415.30;131180;1253;107914;-79
2023/07/24 00:56:48;;;;;;;7.10;3.50;;;;;;;20.57;54.37;99416.39;131278;1252;107514;-79
2023/07/24 00:59:54;;;;;;;6.30;3.70;;;;;;;20.57;54.25;99413.38;131225;1250;107562;-79
2023/07/24 01:03:01;;;;;;;7.10;4.00;;;;;;;20.58;54.33;99413.00;131320;1253;107339;-80
2023/07/24 01:06:07;;;;;;;5.20;3.50;;;;;;;20.58;54.30;99414.54;131281;1252;107604;-79
2023/07/24 01:09:13;;;;;;;6.70;4.10;;;;;;;20.58;54.20;99410.95;131265;1252;107537;-79
2023/07/24 01:12:25;;;;;;;4.30;3.40;;;;;;;20.57;54.33;99402.25;131186;1252;107568;-79
2023/07/24 01:15:36;;;;;;;6.20;3.90;;;;;;;20.55;54.29;99405.58;131258;1253;106804;-79
2023/07/24 01:18:44;;;;;;;4.20;3.50;;;;;;;20.53;54.56;99398.66;131221;1250;107555;-79
2023/07/24 01:22:05;;;;;;;5.20;3.50;;;;;;;20.53;54.30;99402.33;131381;1252;107533;-79
2023/07/24 01:25:28;;;;;;;5.00;3.50;;;;;;;20.52;54.24;99395.44;131335;1252;107541;-79
2023/07/24 01:28:34;;;;;;;6.10;3.70;;;;;;;20.51;54.10;99392.33;131211;1248;107539;-79
2023/07/24 01:31:40;;;;;;;4.50;3.40;;;;;;;20.52;54.13;99393.10;131213;1251;107601;-79
2023/07/24 01:34:45;;;;;;;4.80;3.30;;;;;;;20.52;54.18;99394.08;131357;1248;106274;-79
2023/07/24 01:37:52;;;;;;;5.90;3.50;;;;;;;20.51;53.97;99391.58;131179;1252;107530;-79
2023/07/24 01:40:58;;;;;;;4.90;3.20;;;;;;;20.51;54.21;99391.73;131330;1252;107442;-79
2023/07/24 01:44:06;;;;;;;5.50;3.40;;;;;;;20.51;54.18;99390.20;131454;1255;107512;-79
2023/07/24 01:47:11;;;;;;;4.40;3.00;;;;;;;20.50;54.36;99391.65;131313;1250;107571;-78
2023/07/24 01:50:17;;;;;;;4.20;3.60;;;;;;;20.48;54.44;99393.44;131245;1252;107839;-78
2023/07/24 01:53:23;;;;;;;5.20;3.50;;;;;;;20.45;54.33;99393.59;131325;1253;107549;-79
2023/07/24 01:56:28;;;;;;;8.00;3.60;;;;;;;20.42;54.35;99388.05;131353;1250;107400;-79
2023/07/24 01:59:34;;;;;;;4.80;3.40;;;;;;;20.39;54.47;99379.39;131333;1250;107275;-79
2023/07/24 02:02:39;;;;;;;5.10;3.50;;;;;;;20.35;54.40;99381.70;131462;1255;108090;-79
2023/07/24 02:05:49;;;;;;;4.50;3.20;;;;;;;20.30;54.59;99380.72;131188;1253;108569;-79
2023/07/24 02:08:55;;;;;;;5.80;3.30;;;;;;;20.28;54.58;99373.52;131264;1252;107552;-79
2023/07/24 02:12:02;;;;;;;5.50;3.90;;;;;;;20.25;54.63;99371.03;131374;1252;107653;-79
2023/07/24 02:15:09;;;;;;;5.00;3.40;;;;;;;20.23;54.56;99365.94;131324;1250;107381;-79
2023/07/24 02:18:14;;;;;;;4.20;3.30;;;;;;;20.20;54.61;99361.89;131241;1250;107622;-79
2023/07/24 02:21:20;;;;;;;5.10;3.40;;;;;;;20.17;54.78;99360.78;131285;1250;108643;-79
2023/07/24 02:24:25;;;;;;;4.30;3.30;;;;;;;20.14;55.03;99359.73;131157;1253;108636;-78
2023/07/24 02:27:34;;;;;;;4.40;3.50;;;;;;;20.10;55.47;99356.88;131136;1248;107494;-79
2023/07/24 02:30:41;;;;;;;4.50;3.60;;;;;;;20.04;55.53;99355.23;131462;1254;107547;-76
2023/07/24 02:33:46;;;;;;;4.60;3.30;;;;;;;19.97;55.61;99352.77;131281;1253;107553;-76
2023/07/24 02:36:52;;;;;;;5.70;3.40;;;;;;;19.91;55.81;99351.48;131262;1253;107507;-76
2023/07/24 02:39:58;;;;;;;5.70;3.50;;;;;;;19.83;55.93;99354.29;131654;1252;106181;-74
2023/07/24 02:43:04;;;;;;;4.40;3.30;;;;;;;19.73;56.04;99356.87;131926;1253;107486;-74
2023/07/24 02:46:09;;;;;;;4.20;3.60;;;;;;;19.65;56.28;99361.35;131562;1252;106741;-74
2023/07/24 02:49:15;;;;;;;3.50;3.20;;;;;;;19.56;56.48;99359.59;131165;1248;107336;-74
2023/07/24 02:52:20;;;;;;;4.40;3.60;;;;;;;19.48;56.60;99361.50;131176;1250;107553;-74
2023/07/24 02:55:26;;;;;;;4.00;3.20;;;;;;;19.42;56.90;99372.02;131148;1253;105904;-74
2023/07/24 02:58:31;;;;;;;5.00;3.40;;;;;;;19.36;57.27;99380.51;131148;1253;107528;-74
2023/07/24 03:01:37;;;;;;;6.10;3.70;;;;;;;19.32;57.38;99387.66;131197;1252;107513;-74
2023/07/24 03:04:42;;;;;;;4.60;3.40;;;;;;;19.28;57.38;99385.30;131173;1251;107568;-74
2023/07/24 03:07:48;;;;;;;4.40;3.30;;;;;;;19.25;57.60;99385.43;131166;1252;107411;-74
2023/07/24 03:10:54;;;;;;;3.80;3.40;;;;;;;19.21;57.68;99387.40;131123;1250;107239;-74
2023/07/24 03:14:00;;;;;;;4.50;3.50;;;;;;;19.18;57.85;99391.52;131153;1253;107669;-76
2023/07/24 03:17:05;;;;;;;5.40;3.30;;;;;;;19.15;58.02;99394.97;131151;1253;107410;-74
2023/07/24 03:20:14;;;;;;;3.60;3.30;;;;;;;19.13;58.24;99399.67;131206;1261;107523;-74
2023/07/24 03:23:20;;;;;;;4.70;3.50;;;;;;;19.09;58.37;99398.81;131130;1252;107461;-74
2023/07/24 03:26:25;;;;;;;4.70;3.20;;;;;;;19.08;58.53;99393.49;131114;1254;107544;-74
2023/07/24 03:29:31;;;;;;;5.20;4.00;;;;;;;19.10;58.67;99386.29;131188;1250;107599;-74
2023/07/24 03:32:39;;;;;;;4.40;3.50;;;;;;;19.10;58.72;99391.98;131280;1253;107564;-74
2023/07/24 03:35:44;;;;;;;4.40;3.50;;;;;;;19.08;58.98;99395.87;131088;1257;108138;-74
2023/07/24 03:38:50;;;;;;;4.30;3.40;;;;;;;19.09;59.17;99393.40;131232;1250;107371;-74
2023/07/24 03:41:55;;;;;;;6.30;3.90;;;;;;;19.13;59.42;99382.86;131120;1250;108066;-74
2023/07/24 03:45:01;;;;;;;5.20;3.70;;;;;;;19.16;59.40;99387.96;131229;1252;107538;-74
2023/07/24 03:48:07;;;;;;;6.50;3.50;;;;;;;19.19;59.63;99394.26;131131;1258;107319;-74
2023/07/24 03:51:13;;;;;;;5.10;3.10;;;;;;;19.22;59.74;99393.33;131128;1253;107603;-74
2023/07/24 03:54:19;;;;;;;4.40;3.50;;;;;;;19.25;59.87;99390.13;131165;1247;107447;-74
2023/07/24 03:57:24;;;;;;;3.60;3.20;;;;;;;19.27;60.04;99396.09;131095;1253;107516;-74
2023/07/24 04:00:30;;;;;;;4.70;3.40;;;;;;;19.28;60.11;99401.77;131235;1251;107556;-74
2023/07/24 04:03:35;;;;;;;3.90;3.30;;;;;;;19.32;60.33;99405.84;131277;1253;107527;-74
2023/07/24 04:06:41;;;;;;;3.80;3.40;;;;;;;19.40;60.52;99408.92;131265;1250;107436;-74
2023/07/24 04:09:47;;;;;;;4.90;3.50;;;;;;;19.51;60.49;99406.20;131119;1253;107527;-74
2023/07/24 04:12:52;;;;;;;4.10;3.30;;;;;;;19.61;60.76;99394.77;131198;1253;105893;-74
2023/07/24 04:15:59;;;;;;;4.00;3.10;;;;;;;19.70;60.64;99399.91;131173;1253;107197;-74
2023/07/24 04:19:05;;;;;;;3.90;3.20;;;;;;;19.76;60.71;99398.25;131180;1250;107575;-74
2023/07/24 04:22:10;;;;;;;4.00;3.10;;;;;;;19.83;60.77;99397.96;131149;1253;106714;-74
2023/07/24 04:25:16;;;;;;;4.90;3.20;;;;;;;19.85;60.72;99399.23;131398;1252;107508;-74
2023/07/24 04:28:22;;;;;;;4.10;3.50;;;;;;;19.88;60.85;99404.38;131122;1250;107589;-74
2023/07/24 04:31:27;;;;;;;4.50;3.40;;;;;;;19.88;61.15;99403.95;131151;1253;107539;-74
2023/07/24 04:34:33;;;;;;;4.60;3.70;;;;;;;19.86;61.05;99404.71;131217;1253;107517;-75
2023/07/24 04:37:39;;;;;;;5.00;3.00;;;;;;;19.86;61.45;99401.51;131203;1247;106033;-74
2023/07/24 04:40:47;;;;;;;5.50;3.70;;;;;;;19.88;61.53;99398.64;131148;1254;107368;-74
2023/07/24 04:43:52;;;;;;;3.60;3.30;;;;;;;19.92;61.64;99399.10;131144;1250;107541;-74
2023/07/24 04:46:58;;;;;;;4.10;3.00;;;;;;;20.00;61.68;99398.64;131230;1252;107514;-74
2023/07/24 04:50:03;;;;;;;4.40;3.20;;;;;;;20.09;61.81;99396.95;131323;1250;107368;-74
2023/07/24 04:53:09;;;;;;;3.60;3.20;;;;;;;20.22;61.92;99401.09;131234;1263;106755;-75
2023/07/24 04:56:14;;;;;;;3.60;3.00;;;;;;;20.39;61.88;99399.50;131145;1253;107511;-74
2023/07/24 04:59:20;;;;;;;3.60;2.80;;;;;;;20.54;61.66;99401.41;131175;1253;108115;-74
2023/07/24 05:02:25;;;;;;;4.50;3.00;;;;;;;20.70;61.52;99398.06;131101;1254;107584;-75
2023/07/24 05:05:31;;;;;;;5.20;3.50;;;;;;;20.82;61.26;99400.41;131190;1253;107238;-75
2023/07/24 05:08:37;;;;;;;4.40;3.10;;;;;;;20.86;61.13;99399.68;131184;1262;107526;-74
2023/07/24 05:11:44;;;;;;;3.70;2.90;;;;;;;20.93;61.07;99402.66;131184;1253;107337;-74
2023/07/24 05:14:50;;;;;;;4.40;3.10;;;;;;;20.97;61.20;99406.07;131124;1254;109306;-73
2023/07/24 05:17:55;;;;;;;4.80;3.00;;;;;;;21.03;60.84;99405.30;131195;1251;106733;-73
2023/07/24 05:21:01;;;;;;;5.80;2.90;;;;;;;21.05;60.84;99410.21;131234;1253;107675;-73
2023/07/24 05:24:07;;;;;;;3.60;2.80;;;;;;;21.05;60.85;99409.18;131138;1253;107387;-73
2023/07/24 05:27:12;;;;;;;4.60;2.80;;;;;;;21.05;60.76;99409.61;131183;1253;107490;-73
2023/07/24 05:30:18;;;;;;;6.80;3.00;;;;;;;21.06;60.33;99415.29;131129;1253;107536;-76
2023/07/24 05:33:24;;;;;;;4.40;2.80;;;;;;;21.10;60.33;99415.42;131197;1253;107577;-73
2023/07/24 05:36:29;;;;;;;3.40;2.50;;;;;;;21.18;60.21;99414.53;131140;1253;107926;-74
2023/07/24 05:39:35;;;;;;;5.60;2.70;;;;;;;21.30;60.09;99412.02;131185;1260;106684;-74
2023/07/24 05:42:43;;;;;;;4.20;2.60;;;;;;;21.42;59.81;99410.90;131088;1252;107365;-76
2023/07/24 05:45:48;;;;;;;4.10;2.80;;;;;;;21.57;59.53;99409.33;131315;1254;107367;-74
2023/07/24 05:48:54;;;;;;;3.50;2.60;;;;;;;21.71;59.33;99405.85;131163;1253;107596;-75
2023/07/24 05:51:59;;;;;;;4.60;4.00;;;;;;;21.82;59.29;99403.65;131244;1253;107533;-74
2023/07/24 05:55:15;;;;;;;8.00;3.50;;;;;;;21.94;59.09;99404.77;131197;1253;106569;-75
2023/07/24 05:58:24;;;;;;;4.70;2.90;;;;;;;22.06;58.46;99403.71;130943;1251;108137;-74
2023/07/24 06:01:30;;;;;;;4.50;3.80;;;;;;;22.19;58.47;99395.64;131201;1253;107498;-76
2023/07/24 06:04:35;;;;;;;3.90;3.00;;;;;;;22.35;58.05;99400.07;131215;1253;107522;-76
2023/07/24 06:07:41;;;;;;;4.10;3.10;;;;;;;22.49;57.84;99406.13;131191;1256;107586;-76
2023/07/24 06:10:48;;;;;;;3.00;2.60;;;;;;;22.61;57.39;99403.45;131107;1253;107492;-76
2023/07/24 06:13:54;;;;;;;3.20;2.80;;;;;;;22.69;57.13;99398.92;131204;1253;107249;-76
2023/07/24 06:17:00;;;;;;;4.50;3.00;;;;;;;22.80;57.12;99395.03;131173;1253;107402;-75
2023/07/24 06:20:06;;;;;;;3.30;2.80;;;;;;;22.91;56.95;99391.45;131134;1254;108668;-74
2023/07/24 06:23:12;;;;;;;3.20;2.40;;;;;;;22.98;56.82;99390.55;131183;1253;105938;-74
2023/07/24 06:26:17;;;;;;;3.70;2.10;;;;;;;23.07;56.64;99391.92;131105;1256;106763;-74
2023/07/24 06:29:23;;;;;;;3.00;2.30;;;;;;;23.22;56.52;99386.95;131188;1253;107522;-74
2023/07/24 06:32:29;;;;;;;3.80;2.70;;;;;;;23.36;56.05;99384.54;131235;1253;107543;-74
2023/07/24 06:35:35;;;;;;;3.80;2.60;;;;;;;23.44;55.96;99390.58;131162;1252;107514;-75
2023/07/24 06:38:42;;;;;;;3.20;2.50;;;;;;;23.49;55.32;99387.96;131202;1252;107409;-74
2023/07/24 06:41:47;;;;;;;5.10;2.50;;;;;;;23.53;55.46;99386.30;131220;1257;107229;-74
2023/07/24 06:44:53;;;;;;;3.30;2.40;;;;;;;23.65;55.63;99388.52;131133;1253;106657;-74
2023/07/24 06:47:58;;;;;;;4.30;2.30;;;;;;;23.81;54.63;99386.00;131232;1252;107502;-74
2023/07/24 06:51:04;;;;;;;3.30;2.40;;;;;;;24.00;54.96;99380.52;131142;1254;107573;-74
2023/07/24 06:54:09;;;;;;;2.40;2.20;;;;;;;24.16;54.58;99376.41;131170;1262;108717;-74
2023/07/24 06:57:15;;;;;;;3.80;2.30;;;;;;;24.32;54.19;99370.70;131184;1254;108087;-74
2023/07/24 07:00:21;;;;;;;2.10;1.90;;;;;;;24.49;53.80;99370.59;131195;1261;107534;-74
2023/07/24 07:03:26;;;;;;;4.40;2.10;;;;;;;24.64;53.98;99372.13;131213;1260;107566;-75
2023/07/24 07:06:32;;;;;;;2.60;2.00;;;;;;;24.76;53.50;99374.56;131156;1255;107109;-75
2023/07/24 07:09:37;;;;;;;3.20;1.80;;;;;;;24.88;52.85;99371.93;131161;1260;107518;-76
2023/07/24 07:12:43;;;;;;;3.20;2.00;;;;;;;24.94;52.90;99365.66;131331;1260;107534;-75
2023/07/24 07:15:48;;;;;;;3.00;1.80;;;;;;;25.12;53.09;99366.78;131119;1253;107621;-75
2023/07/24 07:18:54;;;;;;;2.00;1.80;;;;;;;25.35;52.39;99363.98;131335;1261;107632;-75
2023/07/24 07:21:59;;;;;;;1.90;1.70;;;;;;;25.46;52.00;99359.84;131098;1260;107507;-75
2023/07/24 07:25:05;;;;;;;2.80;2.10;;;;;;;25.55;52.19;99363.88;131258;1254;106816;-74
2023/07/24 07:28:11;;;;;;;2.80;1.80;;;;;;;25.64;52.03;99364.76;131064;1253;108016;-75
2023/07/24 07:31:16;;;;;;;2.50;1.70;;;;;;;25.73;51.81;99356.49;131179;1255;107042;-74
2023/07/24 07:34:22;;;;;;;3.00;1.70;;;;;;;25.81;51.58;99357.57;131118;1252;107585;-75
2023/07/24 07:37:27;;;;;;;3.00;1.60;;;;;;;25.86;50.75;99357.61;131144;1262;107453;-74
2023/07/24 07:40:34;;;;;;;2.70;1.80;;;;;;;25.89;50.65;99354.67;131186;1253;107588;-75
2023/07/24 07:43:39;;;;;;;2.40;1.90;;;;;;;25.94;50.25;99350.52;131206;1250;107390;-75
2023/07/24 07:46:45;;;;;;;3.60;1.60;;;;;;;26.06;50.20;99353.40;131093;1262;107516;-75
2023/07/24 07:49:50;;;;;;;2.10;1.80;;;;;;;26.17;49.85;99344.89;131216;1260;108615;-75
2023/07/24 07:52:56;;;;;;;3.50;1.60;;;;;;;26.20;47.88;99337.12;131183;1262;107564;-75
2023/07/24 07:56:01;;;;;;;2.30;1.80;;;;;;;26.10;49.28;99338.52;131221;1253;107526;-75
2023/07/24 07:59:07;;;;;;;3.00;1.70;;;;;;;26.11;49.37;99335.12;131156;1253;108016;-74
2023/07/24 08:02:12;;;;;;;2.40;1.70;;;;;;;26.17;49.49;99334.77;131179;1253;107608;-75
2023/07/24 08:05:18;;;;;;;2.60;1.60;;;;;;;26.25;49.14;99331.23;131129;1253;107939;-75
2023/07/24 08:08:24;;;;;;;1.60;1.40;;;;;;;26.34;49.30;99326.72;131146;1254;107350;-75
2023/07/24 08:11:29;;;;;;;2.10;1.50;;;;;;;26.41;48.87;99323.69;131140;1260;107564;-74
2023/07/24 08:14:35;;;;;;;2.40;1.60;;;;;;;26.47;48.68;99320.98;131039;1253;108617;-75
2023/07/24 08:17:40;;;;;;;2.30;1.80;;;;;;;26.50;48.47;99321.45;131177;1255;107910;-76
2023/07/24 08:20:45;;;;;;;1.80;1.60;;;;;;;26.56;48.51;99321.09;131030;1255;107532;-76
2023/07/24 08:23:51;;;;;;;1.80;1.60;;;;;;;26.62;48.34;99323.38;131215;1252;107491;-75
2023/07/24 08:26:56;;;;;;;2.30;2.10;;;;;;;26.65;47.80;99322.44;131110;1253;107518;-75
2023/07/24 08:30:02;;;;;;;2.30;2.00;;;;;;;26.69;47.69;99317.21;131307;1252;107611;-75
2023/07/24 08:33:07;;;;;;;1.70;1.60;;;;;;;26.72;48.04;99309.05;131250;1260;107203;-76
2023/07/24 08:36:13;;;;;;;3.20;1.60;;;;;;;26.77;47.54;99305.94;131234;1260;107646;-76
2023/07/24 08:39:19;;;;;;;2.30;1.80;;;;;;;26.81;47.15;99308.66;131154;1258;107248;-76
2023/07/24 08:42:25;;;;;;;2.10;1.70;;;;;;;26.89;47.41;99307.89;131149;1254;107467;-76
2023/07/24 08:45:32;;;;;;;2.40;1.70;;;;;;;26.97;46.71;99310.70;131125;1253;107482;-77
2023/07/24 08:48:39;;;;;;;2.40;1.70;;;;;;;27.00;46.35;99306.06;131354;1253;107568;-77
2023/07/24 08:51:46;;;;;;;2.00;1.60;;;;;;;27.08;46.23;99308.31;131116;1252;108599;-76
2023/07/24 08:54:52;;;;;;;3.00;1.80;;;;;;;27.18;46.20;99305.86;131280;1254;107654;-75
2023/07/24 08:57:58;;;;;;;2.60;1.90;;;;;;;27.27;45.92;99308.79;131122;1253;107526;-75
2023/07/24 09:01:05;;;;;;;2.30;1.90;;;;;;;27.30;45.68;99307.83;131175;1252;108133;-76
2023/07/24 09:04:10;;;;;;;2.30;1.90;;;;;;;27.31;45.53;99302.34;131175;1254;107512;-76
2023/07/24 09:07:16;;;;;;;2.10;1.50;;;;;;;27.32;45.26;99295.91;131105;1251;107392;-75
2023/07/24 09:10:26;;;;;;;2.20;2.00;;;;;;;27.40;45.43;99289.61;131138;1253;107551;-75
2023/07/24 09:13:32;;;;;;;5.50;2.00;;;;;;;27.54;45.13;99285.75;131096;1262;107544;-76
2023/07/24 09:16:38;;;;;;;4.00;2.80;;;;;;;27.65;44.50;99275.88;131293;1260;107855;-76
2023/07/24 09:19:44;;;;;;;2.30;1.90;;;;;;;27.71;44.46;99280.80;131197;1253;108009;-75
2023/07/24 09:22:54;;;;;;;5.20;2.30;;;;;;;27.85;44.42;99277.08;131115;1260;107517;-77
2023/07/24 09:26:05;;;;;;;2.90;2.00;;;;;;;27.92;44.00;99277.73;131290;1249;107315;-74
2023/07/24 09:29:11;;;;;;;2.50;1.80;;;;;;;27.93;43.84;99277.02;131182;1247;107578;-75
2023/07/24 09:32:23;;;;;;;4.40;2.20;;;;;;;27.93;43.92;99272.47;131290;1261;107488;-75
2023/07/24 09:35:29;;;;;;;2.70;2.30;;;;;;;27.84;43.73;99261.31;131203;1254;107416;-75
2023/07/24 09:38:35;;;;;;;3.10;2.30;;;;;;;27.85;43.85;99252.69;131140;1251;107546;-75
2023/07/24 09:41:41;;;;;;;3.20;2.20;;;;;;;27.84;43.25;99240.48;131209;1253;107404;-75
2023/07/24 09:44:46;;;;;;;4.50;2.60;;;;;;;27.84;43.22;99241.40;131237;1253;107994;-75
2023/07/24 09:47:56;;;;;;;3.70;2.00;;;;;;;27.84;42.95;99234.28;131186;1252;107535;-75
2023/07/24 09:51:02;;;;;;;2.50;2.20;;;;;;;27.87;42.71;99228.43;131191;1258;107260;-74
2023/07/24 09:54:14;;;;;;;4.30;3.00;;;;;;;27.89;42.48;99229.41;131163;1254;108570;-75
2023/07/24 09:57:20;;;;;;;2.90;2.10;;;;;;;28.02;42.30;99224.27;131161;1253;107286;-75
2023/07/24 10:00:26;;;;;;;4.10;2.60;;;;;;;28.23;41.67;99224.44;131024;1249;107289;-76
2023/07/24 10:03:34;;;;;;;3.60;2.40;;;;;;;28.37;41.27;99219.61;131318;1253;108341;-77
2023/07/24 10:06:40;;;;;;;2.90;2.20;;;;;;;28.45;41.22;99215.56;131035;1255;107429;-77
2023/07/24 10:09:46;;;;;;;3.20;2.20;;;;;;;28.45;41.33;99214.08;131251;1254;107554;-77
2023/07/24 10:12:53;;;;;;;3.40;2.30;;;;;;;28.44;41.33;99212.00;131142;1254;107193;-76
2023/07/24 10:15:59;;;;;;;3.10;2.30;;;;;;;28.37;40.64;99213.52;131254;1258;107466;-76
2023/07/24 10:19:15;;;;;;;4.50;2.40;;;;;;;28.30;40.54;99211.00;131151;1255;107544;-76
2023/07/24 10:22:22;;;;;;;3.10;2.30;;;;;;;28.20;40.40;99215.75;131271;1251;107459;-76
2023/07/24 10:25:33;;;;;;;3.10;2.40;;;;;;;28.11;40.50;99203.59;131136;1258;107381;-76
2023/07/24 10:28:40;;;;;;;3.30;2.40;;;;;;;28.02;40.72;99198.10;131226;1253;107363;-76
2023/07/24 10:31:55;;;;;;;3.10;2.20;;;;;;;27.94;40.77;99195.46;131185;1252;107408;-76
2023/07/24 10:35:08;;;;;;;2.90;2.30;;;;;;;27.98;40.68;99188.06;131132;1260;107343;-77
2023/07/24 10:38:16;;;;;;;3.40;2.30;;;;;;;28.09;40.85;99174.09;131166;1254;107542;-75
2023/07/24 10:41:21;;;;;;;3.50;2.60;;;;;;;28.21;40.47;99168.72;131182;1251;107414;-75
2023/07/24 10:44:33;;;;;;;3.80;2.70;;;;;;;28.29;40.01;99160.20;131136;1254;107537;-75
2023/07/24 10:47:39;;;;;;;4.40;2.50;;;;;;;28.38;40.05;99152.72;131124;1251;107798;-76
2023/07/24 10:50:47;;;;;;;3.20;2.70;;;;;;;28.54;40.18;99159.30;131121;1254;107418;-75
2023/07/24 10:53:53;;;;;;;5.10;2.40;;;;;;;28.72;39.85;99155.34;131172;1260;107440;-76
2023/07/24 10:57:02;;;;;;;2.70;2.50;;;;;;;28.88;39.52;99147.86;131167;1251;107516;-75
2023/07/24 11:00:10;;;;;;;3.70;2.40;;;;;;;28.98;38.99;99143.17;131285;1254;108007;-74
2023/07/24 11:03:18;;;;;;;3.60;2.60;;;;;;;28.99;38.82;99133.28;131308;1255;107590;-75
2023/07/24 11:06:23;;;;;;;2.70;2.30;;;;;;;29.01;38.76;99130.95;131286;1252;107527;-75
2023/07/24 11:09:39;;;;;;;2.90;2.30;;;;;;;29.03;38.18;99126.11;131143;1251;107604;-75
2023/07/24 11:12:45;;;;;;;4.10;2.30;;;;;;;29.01;38.04;99129.55;131100;1251;107417;-75
2023/07/24 11:15:52;;;;;;;5.00;2.10;;;;;;;28.91;38.18;99137.15;131160;1251;107254;-75
2023/07/24 11:18:58;;;;;;;2.70;2.30;;;;;;;28.87;38.13;99134.38;131218;1258;107937;-75
2023/07/24 11:22:03;;;;;;;4.70;2.40;;;;;;;28.88;38.25;99129.48;131230;1255;105694;-75
2023/07/24 11:25:10;;;;;;;3.60;2.30;;;;;;;28.86;38.11;99123.79;131161;1255;107629;-75
2023/07/24 11:28:16;;;;;;;3.90;2.70;;;;;;;28.96;37.89;99119.54;131211;1251;107629;-75
2023/07/24 11:31:22;;;;;;;3.10;2.30;;;;;;;28.96;37.98;99118.27;131132;1247;107477;-75
2023/07/24 11:34:28;;;;;;;2.70;2.00;;;;;;;28.99;37.94;99104.39;131168;1254;105739;-74
2023/07/24 11:37:34;;;;;;;3.30;2.20;;;;;;;29.14;37.83;99106.04;131188;1250;107215;-75
2023/07/24 11:40:43;;;;;;;3.60;2.30;;;;;;;29.23;37.60;99101.05;131196;1251;107460;-75
2023/07/24 11:43:50;;;;;;;2.40;2.20;;;;;;;29.25;37.11;99103.86;131199;1253;107394;-75
2023/07/24 11:47:03;;;;;;;3.80;2.20;;;;;;;29.40;37.15;99106.63;131247;1250;107525;-75
2023/07/24 11:50:10;;;;;;;2.50;2.20;;;;;;;29.56;36.87;99116.69;131184;1253;107372;-75
2023/07/24 11:53:24;;;;;;;2.10;1.90;;;;;;;29.67;37.04;99121.74;131246;1252;106674;-75
2023/07/24 11:56:31;;;;;;;2.80;2.00;;;;;;;29.81;37.03;99112.44;131290;1252;107716;-75
2023/07/24 11:59:40;;;;;;;3.20;2.50;;;;;;;29.98;36.90;99102.92;131237;1253;107001;-75
2023/07/24 12:02:46;;;;;;;5.00;2.20;;;;;;;30.13;36.37;99102.86;131324;1251;107541;-76
2023/07/24 12:05:52;;;;;;;3.80;2.30;;;;;;;30.21;36.49;99094.91;131226;1251;107245;-76
2023/07/24 12:09:05;;;;;;;2.40;2.00;;;;;;;30.22;36.25;99083.83;131092;1251;107515;-76
2023/07/24 12:12:16;;;;;;;3.00;2.60;;;;;;;30.17;36.16;99084.08;131227;1252;108065;-76
2023/07/24 12:15:22;;;;;;;3.50;2.50;;;;;;;30.12;36.24;99088.80;131213;1254;107459;-75
2023/07/24 12:18:27;;;;;;;3.20;2.80;;;;;;;30.15;36.15;99086.69;131137;1249;107471;-77
2023/07/24 12:21:33;;;;;;;3.70;2.40;;;;;;;30.15;35.95;99093.39;131257;1251;107448;-75
2023/07/24 12:24:38;;;;;;;2.80;2.50;;;;;;;30.14;35.87;99088.20;131170;1254;107483;-75
2023/07/24 12:27:44;;;;;;;3.00;2.40;;;;;;;30.21;35.91;99091.16;131248;1254;107500;-72
2023/07/24 12:30:49;;;;;;;5.10;2.30;;;;;;;30.26;35.59;99093.15;131187;1252;107327;-74
2023/07/24 12:33:55;;;;;;;3.10;2.50;;;;;;;30.27;35.66;99092.31;131048;1254;186800;-75
2023/07/24 12:37:00;;;;;;;6.70;2.90;;;;;;;30.39;35.28;99090.42;131262;1254;107073;-75
2023/07/24 12:40:09;;;;;;;3.90;2.90;;;;;;;30.55;35.23;99082.40;131154;1251;108095;-75
2023/07/24 12:43:15;;;;;;;3.50;2.60;;;;;;;30.59;35.38;99070.66;131152;1251;107541;-75
2023/07/24 12:46:21;;;;;;;3.10;2.80;;;;;;;30.71;35.26;99054.81;131197;1252;107454;-75
2023/07/24 12:49:26;;;;;;;4.40;3.00;;;;;;;30.76;35.06;99054.42;131274;1253;107614;-75
2023/07/24 12:52:32;;;;;;;4.80;2.50;;;;;;;30.65;34.86;99059.16;131243;1251;106780;-75
2023/07/24 12:55:38;;;;;;;3.30;2.70;;;;;;;30.50;34.77;99059.02;131278;1250;107530;-76
2023/07/24 12:58:44;;;;;;;2.60;2.40;;;;;;;30.39;34.95;99050.86;131099;1252;107518;-76
2023/07/24 13:01:49;;;;;;;5.40;2.60;;;;;;;30.40;35.17;99040.49;131324;1251;107494;-76
2023/07/24 13:04:55;;;;;;;3.50;2.70;;;;;;;30.53;34.92;99031.83;131103;1254;107504;-77
2023/07/24 13:08:00;;;;;;;4.30;2.60;;;;;;;30.66;35.13;99024.67;131161;1249;107856;-77
2023/07/24 13:11:06;;;;;;;3.10;2.80;;;;;;;30.73;34.34;99016.16;131158;1263;106705;-77
2023/07/24 13:14:11;;;;;;;2.70;2.50;;;;;;;30.78;34.53;99008.98;131212;1251;107624;-77
2023/07/24 13:17:17;;;;;;;3.90;2.80;;;;;;;30.85;34.49;98996.44;131280;1254;107447;-77
2023/07/24 13:20:22;;;;;;;3.30;2.60;;;;;;;30.86;33.69;98996.91;131242;1251;107508;-77
2023/07/24 13:23:28;;;;;;;4.00;2.60;;;;;;;30.85;33.72;98990.27;131164;1252;109128;-76
2023/07/24 13:26:33;;;;;;;6.20;2.60;;;;;;;30.95;34.15;98986.22;131126;1253;107546;-77
2023/07/24 13:29:39;;;;;;;5.60;2.80;;;;;;;31.07;34.23;98983.65;131254;1247;107512;-77
2023/07/24 13:32:44;;;;;;;4.10;2.80;;;;;;;31.12;33.93;98984.28;131213;1251;107516;-77
2023/07/24 13:35:52;;;;;;;3.70;2.70;;;;;;;31.13;33.96;98984.89;131243;1251;107250;-76
2023/07/24 13:38:57;;;;;;;3.70;3.20;;;;;;;31.21;33.91;98979.70;131271;1253;107243;-75
2023/07/24 13:42:03;;;;;;;3.90;3.20;;;;;;;31.25;33.87;98975.14;131203;1252;107429;-75
2023/07/24 13:45:10;;;;;;;3.50;2.90;;;;;;;31.26;33.50;98973.83;131190;1248;107545;-76
2023/07/24 13:48:16;;;;;;;3.50;2.90;;;;;;;31.19;33.66;98974.00;131248;1252;107496;-75
2023/07/24 13:51:21;;;;;;;3.50;3.10;;;;;;;31.16;33.50;98971.40;131162;1247;107158;-76
2023/07/24 13:54:27;;;;;;;3.70;3.10;;;;;;;31.13;33.81;98959.91;131155;1253;107518;-75
2023/07/24 13:57:32;;;;;;;3.30;2.90;;;;;;;31.13;33.63;98955.50;131184;1251;105827;-75
2023/07/24 14:00:38;;;;;;;3.60;3.10;;;;;;;31.12;33.28;98950.04;131191;1250;107538;-78
2023/07/24 14:03:44;;;;;;;4.90;3.00;;;;;;;31.11;33.33;98945.42;131334;1252;107606;-76
2023/07/24 14:06:50;;;;;;;3.70;3.20;;;;;;;31.10;33.26;98943.34;131174;1252;107517;-75
2023/07/24 14:09:55;;;;;;;5.10;3.20;;;;;;;31.12;33.12;98944.90;131178;1252;107619;-77
2023/07/24 14:13:01;;;;;;;4.70;3.30;;;;;;;31.13;33.28;98944.20;131135;1262;107527;-77
2023/07/24 14:16:06;;;;;;;4.20;3.30;;;;;;;31.12;33.11;98947.30;131220;1254;107851;-75